Minneapolis (MSP/KMSP)

Information

Location
Minneapolis, MN
Local Time
20:45 / 8:45 pm
GMT Time
01:45 / 1:45 am
Gates
B10
No FAA reported delays
METAR KMSP 270053Z VRB03KT 10SM FEW090 FEW250 21/06 A3010 RMK AO2 SLP190 CB DSNT NE T02110056
TAF KMSP 262336Z 2700/2806 34009KT P6SM SCT060 FM270100 30005KT P6SM SKC FM270600 24003KT P6SM SKC FM271400 21010KT P6SM SCT250 FM271800 18014G22KT P6SM BKN250